Big Bend, California
Current Conditions -  °F | °C
As of 2:56 PM on Friday 28 Nov 2014 (Local Time) from KMHS Reporting Station
Light Rain Light Rain  
Wind Chill: 43°   Ceiling: 1800
Heat Index: 43°   Visibility: 6mi
Dew Point: 40°   Wind: 3mph
Humidity: 89%   Direction: 110°ESE
Pressure: 29.86"   Gusts: NA
Location:  41.02°N, 121.91°W
Report Text: KMHS 282256Z AUTO 11003KT 6SM -RA BR SCT011 BKN018 OVC027 06/04 A2986 RMK AO2 RAB36 SLP127 P0001 T00610044
Loading
Personal Weather Stations






























Interactive Weather Map New forecast layout! Learn more

10-Day Weather Forecast

Advertisements
Track Severe Weather on mobile